createdAt,value
2022-11-01T00:00:48.973Z,83.74
2022-11-01T00:03:23.770Z,83.81
2022-11-01T00:05:57.100Z,83.67
2022-11-01T00:08:30.953Z,83.50
2022-11-01T00:11:07.967Z,83.57
2022-11-01T00:13:40.762Z,83.85
2022-11-01T00:16:15.851Z,83.71
2022-11-01T00:18:49.757Z,83.73
2022-11-01T00:21:24.170Z,83.77
2022-11-01T00:23:57.726Z,83.68
2022-11-01T00:26:31.635Z,83.56
2022-11-01T00:29:05.841Z,83.54
2022-11-01T00:31:38.808Z,83.52
2022-11-01T00:34:11.972Z,83.70
2022-11-01T00:36:46.553Z,83.77
2022-11-01T00:39:19.689Z,83.80
2022-11-01T00:41:52.735Z,83.91
2022-11-01T00:44:25.339Z,83.97
2022-11-01T00:46:58.660Z,84.14
2022-11-01T00:49:31.436Z,84.24
2022-11-01T00:52:05.347Z,84.29
2022-11-01T00:54:38.556Z,84.36
2022-11-01T00:57:12.364Z,84.53
2022-11-01T00:59:45.198Z,84.58
2022-11-01T01:02:20.078Z,84.63
2022-11-01T01:04:53.066Z,84.86
2022-11-01T01:07:26.230Z,84.90
2022-11-01T01:09:59.235Z,84.99
2022-11-01T01:12:32.900Z,85.01
2022-11-01T01:15:07.729Z,84.97
2022-11-01T01:17:40.871Z,84.98
2022-11-01T01:20:14.881Z,85.07
2022-11-01T01:22:48.118Z,85.00
2022-11-01T01:25:21.957Z,85.00
2022-11-01T01:27:57.528Z,85.01
2022-11-01T01:30:29.628Z,85.01
2022-11-01T01:33:04.383Z,85.19
2022-11-01T01:35:38.620Z,85.31
2022-11-01T01:38:11.804Z,85.36
2022-11-01T01:40:45.003Z,85.27
2022-11-01T01:43:19.763Z,85.49
2022-11-01T01:45:52.717Z,85.58
2022-11-01T01:48:28.196Z,85.51
2022-11-01T01:51:04.182Z,85.64
2022-11-01T01:53:44.970Z,85.72
2022-11-01T01:56:21.745Z,85.75
2022-11-01T01:59:10.325Z,85.78
2022-11-01T02:01:43.741Z,85.80
2022-11-01T02:04:30.626Z,85.87
2022-11-01T02:07:03.960Z,86.12
2022-11-01T02:09:37.946Z,86.09
2022-11-01T02:12:15.703Z,86.16
2022-11-01T02:14:48.580Z,86.01
2022-11-01T02:17:41.481Z,85.99
2022-11-01T02:20:40.155Z,85.94
2022-11-01T02:23:35.692Z,85.96
2022-11-01T02:26:53.712Z,86.05
2022-11-01T02:29:53.943Z,86.15
2022-11-01T02:32:56.595Z,86.40
2022-11-01T02:35:52.187Z,86.47
2022-11-01T02:38:34.805Z,86.61
2022-11-01T02:41:26.400Z,86.65
2022-11-01T02:44:05.366Z,86.74
2022-11-01T02:46:59.997Z,86.84
2022-11-01T02:49:42.765Z,86.92
2022-11-01T02:52:25.343Z,86.90
2022-11-01T02:55:09.004Z,86.92
2022-11-01T02:57:42.389Z,87.15
2022-11-01T03:00:34.306Z,86.99
2022-11-01T03:03:31.025Z,87.08
2022-11-01T03:06:12.706Z,87.07
2022-11-01T03:08:50.522Z,87.09
2022-11-01T03:11:33.783Z,87.08
2022-11-01T03:14:25.984Z,87.28
2022-11-01T03:17:12.799Z,87.25
2022-11-01T03:19:53.643Z,87.24
2022-11-01T03:22:36.434Z,87.34
2022-11-01T03:25:42.064Z,87.43
2022-11-01T03:28:20.866Z,87.51
2022-11-01T03:31:03.862Z,87.22
2022-11-01T03:33:40.968Z,87.41
2022-11-01T03:36:18.307Z,87.50
2022-11-01T03:39:00.538Z,87.59
2022-11-01T03:41:38.050Z,87.71
2022-11-01T03:44:13.204Z,87.66
2022-11-01T03:46:46.886Z,87.59
2022-11-01T03:49:21.218Z,87.58
2022-11-01T03:51:54.469Z,87.60
2022-11-01T03:54:29.376Z,87.51
2022-11-01T03:57:03.284Z,87.48
2022-11-01T03:59:36.267Z,87.61
2022-11-01T04:04:42.526Z,87.58
2022-11-01T04:07:15.513Z,87.60
2022-11-01T04:09:48.489Z,87.55
2022-11-01T04:12:21.517Z,87.61
2022-11-01T04:15:13.142Z,87.68
2022-11-01T04:18:04.321Z,87.66
2022-11-01T04:20:37.846Z,87.73
2022-11-01T04:23:11.162Z,87.68
2022-11-01T04:25:46.518Z,87.69
2022-11-01T04:28:19.728Z,87.63
2022-11-01T04:30:53.264Z,87.46
2022-11-01T04:33:26.437Z,87.70
2022-11-01T04:35:59.838Z,87.65
2022-11-01T04:38:32.983Z,87.60
2022-11-01T04:41:06.636Z,87.72
2022-11-01T04:43:39.498Z,87.77
2022-11-01T04:46:13.426Z,87.63
2022-11-01T04:48:46.472Z,87.79
2022-11-01T04:51:19.576Z,87.70
2022-11-01T04:53:53.471Z,87.65
2022-11-01T04:56:26.410Z,87.71
2022-11-01T04:59:00.902Z,87.76
2022-11-01T05:01:36.147Z,87.88
2022-11-01T05:04:09.763Z,87.88
2022-11-01T05:06:43.037Z,87.70
2022-11-01T05:09:16.056Z,87.75
2022-11-01T05:11:49.956Z,87.67
2022-11-01T05:14:22.930Z,87.64
2022-11-01T05:16:58.032Z,87.76
2022-11-01T05:19:30.923Z,87.49
2022-11-01T05:22:05.249Z,87.50
2022-11-01T05:24:38.285Z,87.46
2022-11-01T05:27:11.203Z,87.63
2022-11-01T05:29:44.615Z,87.62
2022-11-01T05:32:18.833Z,87.35
2022-11-01T05:34:51.538Z,87.10
2022-11-01T05:37:28.106Z,87.10
2022-11-01T05:39:59.844Z,87.02
2022-11-01T05:42:32.962Z,87.03
2022-11-01T05:45:06.921Z,86.87
2022-11-01T05:47:40.801Z,86.94
2022-11-01T05:50:15.865Z,86.86
2022-11-01T05:52:50.365Z,86.71
2022-11-01T05:55:24.111Z,86.68
2022-11-01T05:58:01.612Z,86.55
2022-11-01T06:00:36.343Z,86.31
2022-11-01T06:03:09.844Z,85.94
2022-11-01T06:05:43.085Z,85.86
2022-11-01T06:08:16.378Z,85.78
2022-11-01T06:10:49.302Z,85.46
2022-11-01T06:13:22.252Z,85.16
2022-11-01T06:16:01.084Z,84.99
2022-11-01T06:18:35.380Z,84.84
2022-11-01T06:21:08.822Z,84.64
2022-11-01T06:23:44.992Z,84.59
2022-11-01T06:26:18.879Z,84.41
2022-11-01T06:28:51.716Z,84.43
2022-11-01T06:31:25.418Z,84.00
2022-11-01T06:33:58.666Z,83.85
2022-11-01T06:36:31.498Z,83.79
2022-11-01T06:39:04.397Z,83.32
2022-11-01T06:41:38.205Z,83.17
2022-11-01T06:44:12.838Z,83.13
2022-11-01T06:46:45.732Z,82.93
2022-11-01T06:49:19.771Z,83.02
2022-11-01T06:51:53.193Z,83.00
2022-11-01T06:54:26.420Z,82.95
2022-11-01T06:56:59.509Z,82.79
2022-11-01T06:59:32.987Z,82.40
2022-11-01T07:02:08.859Z,82.42
2022-11-01T07:04:40.386Z,82.37
2022-11-01T07:07:13.329Z,82.57
2022-11-01T07:09:47.030Z,82.45
2022-11-01T07:12:20.850Z,81.92
2022-11-01T07:14:56.536Z,81.27
2022-11-01T07:17:31.502Z,81.00
2022-11-01T07:20:05.170Z,80.77
2022-11-01T07:22:38.296Z,79.76
2022-11-01T07:25:12.162Z,79.55
2022-11-01T07:27:45.028Z,79.17
2022-11-01T07:30:18.210Z,78.87
2022-11-01T07:32:52.968Z,78.76
2022-11-01T07:35:26.830Z,78.59
2022-11-01T07:38:05.187Z,78.07
2022-11-01T07:40:38.442Z,77.63
2022-11-01T07:43:12.229Z,77.17
2022-11-01T07:45:45.728Z,76.62
2022-11-01T07:48:20.738Z,76.68
2022-11-01T07:50:57.811Z,76.34
2022-11-01T07:53:30.703Z,75.99
2022-11-01T07:56:04.251Z,75.65
2022-11-01T07:58:37.838Z,75.53
2022-11-01T08:01:11.472Z,75.42
2022-11-01T08:03:44.366Z,75.47
2022-11-01T08:06:18.522Z,75.58
2022-11-01T08:08:53.438Z,75.57
2022-11-01T08:11:27.592Z,75.56
2022-11-01T08:14:05.170Z,75.79
2022-11-01T08:16:36.574Z,75.64
2022-11-01T08:19:09.523Z,75.13
2022-11-01T08:21:43.122Z,74.59
2022-11-01T08:24:16.395Z,74.07
2022-11-01T08:26:49.661Z,73.87
2022-11-01T08:29:23.447Z,73.80
2022-11-01T08:31:56.294Z,73.78
2022-11-01T08:34:30.998Z,73.60
2022-11-01T08:37:04.680Z,73.58
2022-11-01T08:39:38.516Z,73.56
2022-11-01T08:42:11.962Z,73.01
2022-11-01T08:44:45.210Z,73.14
2022-11-01T08:47:19.067Z,73.45
2022-11-01T08:49:52.185Z,73.27
2022-11-01T08:52:25.837Z,72.59
2022-11-01T08:54:58.760Z,72.14
2022-11-01T08:57:32.957Z,71.99
2022-11-01T09:00:08.447Z,71.84
2022-11-01T09:02:41.753Z,72.00
2022-11-01T09:05:14.823Z,71.92
2022-11-01T09:07:47.983Z,71.05
2022-11-01T09:10:21.125Z,71.09
2022-11-01T09:12:53.990Z,71.10
2022-11-01T09:15:27.999Z,70.59
2022-11-01T09:18:04.730Z,70.14
2022-11-01T09:20:38.192Z,69.98
2022-11-01T09:23:11.676Z,70.15
2022-11-01T09:25:45.542Z,70.46
2022-11-01T09:28:18.629Z,70.53
2022-11-01T09:31:01.287Z,70.97
2022-11-01T09:33:26.761Z,70.27
2022-11-01T09:36:00.371Z,69.97
2022-11-01T09:38:33.500Z,70.18
2022-11-01T09:41:17.425Z,69.62
2022-11-01T09:43:50.853Z,69.89
2022-11-01T09:46:28.000Z,70.00
2022-11-01T09:49:03.060Z,69.92
2022-11-01T09:51:36.351Z,69.63
2022-11-01T09:54:11.002Z,69.50
2022-11-01T09:56:52.084Z,69.28
2022-11-01T09:59:44.683Z,68.51
2022-11-01T10:02:43.523Z,68.39
2022-11-01T10:05:27.106Z,68.73
2022-11-01T10:08:11.145Z,68.40
2022-11-01T10:11:09.577Z,67.78
2022-11-01T10:14:08.318Z,67.68
2022-11-01T10:16:49.247Z,67.79
2022-11-01T10:19:24.099Z,68.35
2022-11-01T10:22:03.262Z,68.35
2022-11-01T10:24:49.165Z,67.41
2022-11-01T10:27:49.016Z,66.92
2022-11-01T10:30:22.932Z,66.56
2022-11-01T10:33:06.601Z,66.52
2022-11-01T10:35:54.495Z,66.75
2022-11-01T10:39:29.853Z,66.21
2022-11-01T10:41:37.318Z,66.47
2022-11-01T10:44:14.833Z,66.30
2022-11-01T10:46:50.043Z,66.03
2022-11-01T10:52:14.549Z,66.41
2022-11-01T10:54:49.202Z,65.91
2022-11-01T10:57:33.195Z,65.50
2022-11-01T11:00:09.973Z,65.55
2022-11-01T11:02:46.713Z,65.71
2022-11-01T11:05:20.649Z,64.98
2022-11-01T11:07:54.176Z,65.22
2022-11-01T11:10:30.111Z,65.40
2022-11-01T11:13:07.765Z,65.47
2022-11-01T11:15:59.970Z,65.37
2022-11-01T11:18:39.842Z,65.46
2022-11-01T11:21:15.078Z,65.30
2022-11-01T11:23:47.554Z,64.97
2022-11-01T11:26:22.069Z,65.39
2022-11-01T11:28:59.291Z,64.99
2022-11-01T11:31:36.128Z,64.53
2022-11-01T11:34:26.009Z,64.96
2022-11-01T11:37:00.131Z,64.53
2022-11-01T11:39:38.228Z,64.21
2022-11-01T11:42:19.151Z,64.26
2022-11-01T11:44:56.600Z,64.54
2022-11-01T11:47:34.443Z,64.92
2022-11-01T11:50:24.097Z,65.43
2022-11-01T11:53:07.915Z,65.38
2022-11-01T11:55:47.544Z,65.18
2022-11-01T11:58:30.028Z,65.24
2022-11-01T12:01:14.243Z,65.79
2022-11-01T12:03:57.650Z,66.26
2022-11-01T12:06:32.770Z,66.42
2022-11-01T12:09:05.961Z,66.06
2022-11-01T12:11:43.936Z,65.99
2022-11-01T12:14:24.845Z,66.19
2022-11-01T12:16:57.733Z,66.46
2022-11-01T12:19:33.124Z,66.66
2022-11-01T12:22:06.429Z,66.92
2022-11-01T12:24:52.060Z,66.96
2022-11-01T12:27:27.589Z,67.01
2022-11-01T12:30:09.749Z,67.42
2022-11-01T12:33:01.128Z,67.84
2022-11-01T12:35:38.664Z,67.67
2022-11-01T12:38:41.869Z,67.90
2022-11-01T12:41:41.664Z,68.31
2022-11-01T12:44:33.834Z,68.65
2022-11-01T12:47:32.747Z,69.01
2022-11-01T12:50:30.473Z,68.94
2022-11-01T12:53:23.465Z,68.23
2022-11-01T12:55:58.291Z,68.19
2022-11-01T12:58:35.239Z,68.46
2022-11-01T13:01:41.515Z,68.64
2022-11-01T13:04:36.131Z,68.77
2022-11-01T13:07:43.922Z,68.96
2022-11-01T13:10:24.884Z,68.90
2022-11-01T13:13:06.224Z,68.82
2022-11-01T13:16:00.861Z,68.81
2022-11-01T13:18:39.802Z,68.90
2022-11-01T13:21:50.769Z,69.06
2022-11-01T13:24:52.770Z,69.17
2022-11-01T13:27:47.309Z,69.54
2022-11-01T13:30:26.358Z,69.35
2022-11-01T13:33:23.091Z,69.30
2022-11-01T13:36:06.805Z,69.58
2022-11-01T13:38:53.020Z,70.08
2022-11-01T13:41:36.941Z,70.47
2022-11-01T13:44:20.112Z,70.75
2022-11-01T13:47:14.232Z,71.41
2022-11-01T13:50:12.913Z,71.86
2022-11-01T13:52:54.426Z,72.24
2022-11-01T13:55:36.660Z,72.46
2022-11-01T13:58:11.578Z,72.85
2022-11-01T14:00:49.525Z,73.17
2022-11-01T14:03:31.136Z,73.58
2022-11-01T14:06:30.636Z,73.95
2022-11-01T14:09:27.546Z,74.11
2022-11-01T14:12:12.355Z,74.33
2022-11-01T14:14:51.286Z,74.56
2022-11-01T14:17:32.397Z,74.93
2022-11-01T14:20:12.098Z,75.28
2022-11-01T14:22:45.495Z,75.48
2022-11-01T14:25:23.319Z,75.64
2022-11-01T14:28:22.215Z,75.86
2022-11-01T14:30:55.242Z,76.01
2022-11-01T14:33:29.445Z,76.13
2022-11-01T14:36:04.377Z,76.44
2022-11-01T14:38:57.442Z,76.73
2022-11-01T14:41:33.600Z,76.90
2022-11-01T14:44:13.962Z,77.18
2022-11-01T14:46:50.780Z,77.43
2022-11-01T14:49:36.953Z,77.69
2022-11-01T14:52:26.743Z,77.80
2022-11-01T14:55:25.420Z,77.97
2022-11-01T14:58:20.632Z,78.16
2022-11-01T15:00:55.683Z,78.36
2022-11-01T15:03:29.676Z,78.55
2022-11-01T15:06:02.791Z,78.68
2022-11-01T15:08:44.918Z,78.76
2022-11-01T15:11:18.799Z,78.91
2022-11-01T15:13:54.994Z,79.04
2022-11-01T15:16:30.229Z,79.21
2022-11-01T15:19:16.548Z,79.31
2022-11-01T15:21:50.689Z,79.37
2022-11-01T15:24:26.716Z,79.47
2022-11-01T15:27:08.869Z,79.56
2022-11-01T15:29:45.195Z,79.65
2022-11-01T15:32:29.974Z,79.80
2022-11-01T15:35:05.959Z,79.88
2022-11-01T15:37:40.999Z,79.81
2022-11-01T15:40:35.893Z,79.77
2022-11-01T15:43:10.657Z,79.82
2022-11-01T15:45:44.010Z,79.82
2022-11-01T15:48:21.267Z,79.86
2022-11-01T15:51:04.320Z,79.95
2022-11-01T15:53:38.755Z,80.10
2022-11-01T15:56:18.375Z,80.36
2022-11-01T15:58:55.425Z,80.47
2022-11-01T16:01:28.617Z,80.54
2022-11-01T16:04:08.535Z,80.59
2022-11-01T16:06:51.872Z,80.58
2022-11-01T16:09:47.343Z,80.71
2022-11-01T16:12:34.354Z,80.62
2022-11-01T16:15:12.257Z,80.64
2022-11-01T16:17:45.668Z,80.66
2022-11-01T16:20:36.342Z,80.72
2022-11-01T16:23:13.778Z,80.81
2022-11-01T16:25:47.850Z,80.89
2022-11-01T16:28:26.173Z,80.91
2022-11-01T16:31:00.337Z,80.93
2022-11-01T16:33:45.585Z,81.04
2022-11-01T16:36:37.814Z,81.13
2022-11-01T16:39:31.329Z,81.28
2022-11-01T16:42:04.311Z,81.37
2022-11-01T16:44:37.259Z,81.45
2022-11-01T16:47:14.107Z,81.44
2022-11-01T16:49:55.268Z,81.52
2022-11-01T16:52:28.907Z,81.62
2022-11-01T16:55:01.881Z,81.73
2022-11-01T16:57:34.782Z,81.83
2022-11-01T17:00:14.441Z,81.99
2022-11-01T17:02:48.450Z,81.93
2022-11-01T17:05:25.255Z,81.97
2022-11-01T17:08:02.032Z,82.06
2022-11-01T17:10:37.553Z,82.20
2022-11-01T17:13:11.984Z,82.33
2022-11-01T17:15:49.049Z,82.47
2022-11-01T17:18:29.227Z,82.50
2022-11-01T17:21:07.328Z,82.51
2022-11-01T17:23:41.670Z,82.50
2022-11-01T17:26:16.835Z,82.62
2022-11-01T17:28:52.461Z,82.37
2022-11-01T17:31:26.698Z,82.35
2022-11-01T17:33:59.920Z,82.29
2022-11-01T17:36:35.208Z,82.27
2022-11-01T17:39:11.014Z,82.27
2022-11-01T17:41:44.330Z,82.15
2022-11-01T17:44:17.745Z,82.13
2022-11-01T17:46:51.850Z,82.21
2022-11-01T17:49:25.885Z,82.10
2022-11-01T17:52:00.792Z,82.16
2022-11-01T17:54:34.330Z,82.17
2022-11-01T17:57:08.100Z,82.23
2022-11-01T17:59:42.530Z,82.28
2022-11-01T18:02:17.916Z,82.10
2022-11-01T18:04:50.823Z,81.97
2022-11-01T18:07:24.160Z,81.90
2022-11-01T18:09:59.289Z,81.92
2022-11-01T18:12:40.869Z,81.92
2022-11-01T18:15:29.387Z,82.03
2022-11-01T18:18:36.070Z,82.02
2022-11-01T18:21:37.836Z,82.04
2022-11-01T18:24:22.613Z,82.11
2022-11-01T18:26:57.662Z,82.12
2022-11-01T18:29:33.345Z,82.18
2022-11-01T18:32:40.018Z,82.23
2022-11-01T18:35:34.789Z,82.28
2022-11-01T18:38:38.759Z,82.29
2022-11-01T18:41:13.810Z,82.38
2022-11-01T18:43:47.218Z,82.53
2022-11-01T18:46:27.043Z,82.60
2022-11-01T18:49:03.857Z,82.50
2022-11-01T18:51:40.557Z,82.50
2022-11-01T18:54:24.421Z,82.59
2022-11-01T18:57:07.438Z,82.87
2022-11-01T18:59:42.335Z,82.85
2022-11-01T19:02:27.176Z,82.79
2022-11-01T19:05:21.582Z,82.67
2022-11-01T19:08:10.926Z,82.80
2022-11-01T19:10:37.711Z,82.78
2022-11-01T19:13:19.104Z,82.86
2022-11-01T19:15:54.438Z,82.80
2022-11-01T19:18:28.044Z,82.82
2022-11-01T19:21:02.286Z,82.85
2022-11-01T19:23:46.411Z,82.74
2022-11-01T19:26:40.169Z,82.71
2022-11-01T19:29:26.151Z,82.71
2022-11-01T19:32:05.000Z,82.63
2022-11-01T19:34:42.082Z,82.49
2022-11-01T19:37:30.448Z,82.59
2022-11-01T19:40:08.407Z,82.67
2022-11-01T19:42:45.128Z,82.59
2022-11-01T19:45:29.981Z,82.63
2022-11-01T19:48:04.865Z,82.52
2022-11-01T19:51:00.401Z,82.57
2022-11-01T19:53:40.374Z,82.29
2022-11-01T19:56:19.822Z,82.23
2022-11-01T19:59:00.985Z,82.04
2022-11-01T20:01:43.485Z,82.04
2022-11-01T20:04:27.931Z,82.04
2022-11-01T20:07:14.964Z,81.89
2022-11-01T20:09:49.290Z,81.70
2022-11-01T20:12:23.086Z,81.72
2022-11-01T20:14:56.842Z,81.69
2022-11-01T20:17:30.999Z,81.51
2022-11-01T20:20:04.652Z,81.58
2022-11-01T20:22:37.909Z,81.50
2022-11-01T20:25:11.083Z,81.43
2022-11-01T20:27:44.073Z,81.28
2022-11-01T20:30:17.476Z,81.33
2022-11-01T20:32:50.445Z,81.27
2022-11-01T20:35:23.608Z,81.36
2022-11-01T20:37:56.545Z,81.44
2022-11-01T20:40:29.445Z,81.50
2022-11-01T20:43:02.653Z,81.62
2022-11-01T20:45:36.261Z,81.66
2022-11-01T20:48:09.266Z,81.82
2022-11-01T20:50:42.542Z,82.02
2022-11-01T20:53:15.353Z,82.11
2022-11-01T20:55:48.744Z,82.57
2022-11-01T20:58:21.680Z,82.57
2022-11-01T21:00:54.701Z,82.45
2022-11-01T21:03:28.908Z,82.59
2022-11-01T21:06:02.271Z,82.66
2022-11-01T21:08:36.459Z,82.64
2022-11-01T21:11:14.587Z,82.62
2022-11-01T21:13:47.954Z,82.56
2022-11-01T21:16:31.785Z,82.45
2022-11-01T21:19:05.236Z,82.46
2022-11-01T21:21:46.297Z,82.46
2022-11-01T21:24:36.714Z,82.53
2022-11-01T21:30:21.227Z,82.51
2022-11-01T21:32:54.137Z,82.33
2022-11-01T21:35:41.382Z,82.21
2022-11-01T21:38:38.902Z,82.03
2022-11-01T21:41:41.939Z,82.06
2022-11-01T21:44:45.535Z,81.96
2022-11-01T21:47:32.496Z,81.84
2022-11-01T21:50:06.055Z,81.78
2022-11-01T21:52:38.907Z,81.75
2022-11-01T21:55:11.681Z,81.72
2022-11-01T21:57:45.188Z,81.74
2022-11-01T22:00:18.097Z,81.66
2022-11-01T22:02:50.775Z,81.83
2022-11-01T22:05:23.477Z,81.90
2022-11-01T22:07:56.906Z,81.80
2022-11-01T22:10:29.775Z,81.78
2022-11-01T22:13:06.818Z,81.84
2022-11-01T22:15:38.351Z,81.94
2022-11-01T22:18:12.007Z,81.96
2022-11-01T22:20:45.009Z,81.86
2022-11-01T22:23:17.719Z,81.73
2022-11-01T22:25:50.443Z,81.51
2022-11-01T22:28:23.520Z,81.36
2022-11-01T22:30:56.339Z,81.44
2022-11-01T22:33:29.462Z,81.39
2022-11-01T22:36:03.604Z,81.46
2022-11-01T22:38:44.519Z,81.32
2022-11-01T22:41:35.445Z,81.31
2022-11-01T22:44:14.793Z,81.25
2022-11-01T22:46:58.696Z,81.34
2022-11-01T22:49:43.147Z,81.40
2022-11-01T22:52:43.415Z,81.34
2022-11-01T22:55:27.428Z,81.42
2022-11-01T22:58:08.088Z,81.25
2022-11-01T23:00:41.988Z,81.21
2022-11-01T23:03:36.373Z,81.09
2022-11-01T23:06:33.588Z,80.91
2022-11-01T23:09:17.269Z,80.73
2022-11-01T23:12:10.968Z,80.73
2022-11-01T23:14:48.522Z,80.57
2022-11-01T23:17:31.189Z,80.43
2022-11-01T23:20:04.677Z,80.32
2022-11-01T23:22:38.535Z,80.28
2022-11-01T23:25:12.323Z,80.27
2022-11-01T23:27:45.942Z,80.11
2022-11-01T23:30:20.499Z,80.05
2022-11-01T23:32:53.384Z,80.10
2022-11-01T23:35:27.115Z,80.10
2022-11-01T23:38:00.689Z,79.99
2022-11-01T23:40:34.830Z,80.07
2022-11-01T23:43:26.277Z,79.89
2022-11-01T23:45:58.982Z,79.85
2022-11-01T23:48:31.781Z,79.88
2022-11-01T23:51:05.958Z,79.63
2022-11-01T23:53:40.774Z,79.69
2022-11-01T23:56:14.894Z,79.78
2022-11-01T23:58:53.036Z,79.46
